sensor_id;sensor_type;location;lat;lon;timestamp;P1;P2;P0
54021;PMS7003;39936;51.058;17.220;2022-11-27T00:03:14;67;51;30
54021;PMS7003;39936;51.058;17.220;2022-11-27T00:07:04;78;58;35
54021;PMS7003;39936;51.058;17.220;2022-11-27T00:10:18;67;50;31
54021;PMS7003;39936;51.058;17.220;2022-11-27T00:13:34;65;49;29
54021;PMS7003;39936;51.058;17.220;2022-11-27T00:17:17;64;46;28
54021;PMS7003;39936;51.058;17.220;2022-11-27T00:20:30;60;46;27
54021;PMS7003;39936;51.058;17.220;2022-11-27T00:24:50;66;49;28
54021;PMS7003;39936;51.058;17.220;2022-11-27T00:27:59;73;53;31
54021;PMS7003;39936;51.058;17.220;2022-11-27T00:31:35;77;58;34
54021;PMS7003;39936;51.058;17.220;2022-11-27T00:34:47;72;55;34
54021;PMS7003;39936;51.058;17.220;2022-11-27T00:38:08;75;55;33
54021;PMS7003;39936;51.058;17.220;2022-11-27T00:42:10;74;55;34
54021;PMS7003;39936;51.058;17.220;2022-11-27T00:45:52;82;59;35
54021;PMS7003;39936;51.058;17.220;2022-11-27T00:49:48;70;53;31
54021;PMS7003;39936;51.058;17.220;2022-11-27T00:53:15;63;46;27
54021;PMS7003;39936;51.058;17.220;2022-11-27T00:56:41;60;45;27
54021;PMS7003;39936;51.058;17.220;2022-11-27T00:59:54;61;49;29
54021;PMS7003;39936;51.058;17.220;2022-11-27T01:03:10;62;45;28
54021;PMS7003;39936;51.058;17.220;2022-11-27T01:06:55;62;49;29
54021;PMS7003;39936;51.058;17.220;2022-11-27T01:10:29;66;48;29
54021;PMS7003;39936;51.058;17.220;2022-11-27T01:13:56;51;41;26
54021;PMS7003;39936;51.058;17.220;2022-11-27T01:17:20;59;44;27
54021;PMS7003;39936;51.058;17.220;2022-11-27T01:20:44;61;44;26
54021;PMS7003;39936;51.058;17.220;2022-11-27T01:24:02;45;32;14
54021;PMS7003;39936;51.058;17.220;2022-11-27T01:27:43;59;45;28
54021;PMS7003;39936;51.058;17.220;2022-11-27T01:31:33;63;45;27
54021;PMS7003;39936;51.058;17.220;2022-11-27T01:34:49;62;45;26
54021;PMS7003;39936;51.058;17.220;2022-11-27T01:38:43;63;45;26
54021;PMS7003;39936;51.058;17.220;2022-11-27T01:42:27;61;44;26
54021;PMS7003;39936;51.058;17.220;2022-11-27T01:45:42;58;45;26
54021;PMS7003;39936;51.058;17.220;2022-11-27T01:52:54;59;43;26
54021;PMS7003;39936;51.058;17.220;2022-11-27T01:56:18;59;44;27
54021;PMS7003;39936;51.058;17.220;2022-11-27T01:59:38;59;44;26
54021;PMS7003;39936;51.058;17.220;2022-11-27T02:03:08;53;45;27
54021;PMS7003;39936;51.058;17.220;2022-11-27T02:06:55;58;42;25
54021;PMS7003;39936;51.058;17.220;2022-11-27T02:31:49;56;41;24
54021;PMS7003;39936;51.058;17.220;2022-11-27T02:35:25;61;44;24
54021;PMS7003;39936;51.058;17.220;2022-11-27T02:39:03;56;40;24
54021;PMS7003;39936;51.058;17.220;2022-11-27T02:42:41;55;42;26
54021;PMS7003;39936;51.058;17.220;2022-11-27T02:46:23;55;40;24
54021;PMS7003;39936;51.058;17.220;2022-11-27T02:50:30;57;42;25
54021;PMS7003;39936;51.058;17.220;2022-11-27T02:58:03;56;42;26
54021;PMS7003;39936;51.058;17.220;2022-11-27T03:01:21;61;44;25
54021;PMS7003;39936;51.058;17.220;2022-11-27T03:05:19;63;47;27
54021;PMS7003;39936;51.058;17.220;2022-11-27T03:08:48;62;45;28
54021;PMS7003;39936;51.058;17.220;2022-11-27T03:12:10;66;48;28
54021;PMS7003;39936;51.058;17.220;2022-11-27T03:15:28;63;47;26
54021;PMS7003;39936;51.058;17.220;2022-11-27T03:22:48;63;47;27
54021;PMS7003;39936;51.058;17.220;2022-11-27T03:26:23;67;50;28
54021;PMS7003;39936;51.058;17.220;2022-11-27T03:29:44;59;46;26
54021;PMS7003;39936;51.058;17.220;2022-11-27T03:33:00;59;45;27
54021;PMS7003;39936;51.058;17.220;2022-11-27T03:36:35;64;48;26
54021;PMS7003;39936;51.058;17.220;2022-11-27T03:40:41;67;47;26
54021;PMS7003;39936;51.058;17.220;2022-11-27T03:47:34;63;46;27
54021;PMS7003;39936;51.058;17.220;2022-11-27T03:51:00;58;44;25
54021;PMS7003;39936;51.058;17.220;2022-11-27T03:57:47;62;50;29
54021;PMS7003;39936;51.058;17.220;2022-11-27T04:01:08;69;48;29
54021;PMS7003;39936;51.058;17.220;2022-11-27T04:04:54;60;46;28
54021;PMS7003;39936;51.058;17.220;2022-11-27T04:08:13;59;45;28
54021;PMS7003;39936;51.058;17.220;2022-11-27T04:12:06;63;44;27
54021;PMS7003;39936;51.058;17.220;2022-11-27T04:15:25;65;47;28
54021;PMS7003;39936;51.058;17.220;2022-11-27T04:18:36;62;43;27
54021;PMS7003;39936;51.058;17.220;2022-11-27T04:22:01;62;46;26
54021;PMS7003;39936;51.058;17.220;2022-11-27T04:25:26;66;49;29
54021;PMS7003;39936;51.058;17.220;2022-11-27T04:28:40;69;50;29
54021;PMS7003;39936;51.058;17.220;2022-11-27T04:31:55;68;47;28
54021;PMS7003;39936;51.058;17.220;2022-11-27T04:35:31;62;48;28
54021;PMS7003;39936;51.058;17.220;2022-11-27T04:39:30;59;45;26
54021;PMS7003;39936;51.058;17.220;2022-11-27T04:43:15;63;46;27
54021;PMS7003;39936;51.058;17.220;2022-11-27T04:46:57;67;49;27
54021;PMS7003;39936;51.058;17.220;2022-11-27T04:50:38;67;52;31
54021;PMS7003;39936;51.058;17.220;2022-11-27T04:54:26;60;44;24
54021;PMS7003;39936;51.058;17.220;2022-11-27T04:57:40;59;47;29
54021;PMS7003;39936;51.058;17.220;2022-11-27T05:01:20;64;49;27
54021;PMS7003;39936;51.058;17.220;2022-11-27T05:04:53;67;50;29
54021;PMS7003;39936;51.058;17.220;2022-11-27T05:08:22;62;47;29
54021;PMS7003;39936;51.058;17.220;2022-11-27T05:11:35;65;48;29
54021;PMS7003;39936;51.058;17.220;2022-11-27T05:15:06;65;50;29
54021;PMS7003;39936;51.058;17.220;2022-11-27T05:18:24;68;52;29
54021;PMS7003;39936;51.058;17.220;2022-11-27T05:21:41;66;50;29
54021;PMS7003;39936;51.058;17.220;2022-11-27T05:25:01;69;50;30
54021;PMS7003;39936;51.058;17.220;2022-11-27T05:28:21;63;48;30
54021;PMS7003;39936;51.058;17.220;2022-11-27T05:31:35;68;51;31
54021;PMS7003;39936;51.058;17.220;2022-11-27T05:35:08;61;46;29
54021;PMS7003;39936;51.058;17.220;2022-11-27T05:38:26;69;51;31
54021;PMS7003;39936;51.058;17.220;2022-11-27T05:41:49;69;49;30
54021;PMS7003;39936;51.058;17.220;2022-11-27T05:45:23;64;45;28
54021;PMS7003;39936;51.058;17.220;2022-11-27T05:49:24;64;49;28
54021;PMS7003;39936;51.058;17.220;2022-11-27T05:53:06;68;50;30
54021;PMS7003;39936;51.058;17.220;2022-11-27T05:57:09;66;50;29
54021;PMS7003;39936;51.058;17.220;2022-11-27T06:00:40;67;49;30
54021;PMS7003;39936;51.058;17.220;2022-11-27T06:04:01;60;43;26
54021;PMS7003;39936;51.058;17.220;2022-11-27T06:07:11;61;45;26
54021;PMS7003;39936;51.058;17.220;2022-11-27T06:10:29;61;46;26
54021;PMS7003;39936;51.058;17.220;2022-11-27T06:13:43;57;45;27
54021;PMS7003;39936;51.058;17.220;2022-11-27T06:16:54;55;41;24
54021;PMS7003;39936;51.058;17.220;2022-11-27T06:20:08;62;47;28
54021;PMS7003;39936;51.058;17.220;2022-11-27T06:23:47;63;38;22
54021;PMS7003;39936;51.058;17.220;2022-11-27T06:27:30;59;44;27
54021;PMS7003;39936;51.058;17.220;2022-11-27T06:30:37;62;43;24
54021;PMS7003;39936;51.058;17.220;2022-11-27T06:33:50;66;47;26
54021;PMS7003;39936;51.058;17.220;2022-11-27T06:37:36;53;40;24
54021;PMS7003;39936;51.058;17.220;2022-11-27T06:41:24;59;45;28
54021;PMS7003;39936;51.058;17.220;2022-11-27T06:44:53;60;45;29
54021;PMS7003;39936;51.058;17.220;2022-11-27T06:48:14;60;45;28
54021;PMS7003;39936;51.058;17.220;2022-11-27T06:51:26;60;47;26
54021;PMS7003;39936;51.058;17.220;2022-11-27T06:55:15;59;45;27
54021;PMS7003;39936;51.058;17.220;2022-11-27T06:58:31;56;41;24
54021;PMS7003;39936;51.058;17.220;2022-11-27T07:02:15;61;45;26
54021;PMS7003;39936;51.058;17.220;2022-11-27T07:05:30;56;43;26
54021;PMS7003;39936;51.058;17.220;2022-11-27T07:08:47;58;41;26
54021;PMS7003;39936;51.058;17.220;2022-11-27T07:12:33;63;49;28
54021;PMS7003;39936;51.058;17.220;2022-11-27T07:15:47;58;43;26
54021;PMS7003;39936;51.058;17.220;2022-11-27T07:19:38;80;56;31
54021;PMS7003;39936;51.058;17.220;2022-11-27T07:31:13;63;46;27
54021;PMS7003;39936;51.058;17.220;2022-11-27T07:34:34;58;42;26
54021;PMS7003;39936;51.058;17.220;2022-11-27T07:37:56;50;38;21
54021;PMS7003;39936;51.058;17.220;2022-11-27T07:42:24;58;44;27
54021;PMS7003;39936;51.058;17.220;2022-11-27T07:46:15;57;44;26
54021;PMS7003;39936;51.058;17.220;2022-11-27T07:49:28;42;30;19
54021;PMS7003;39936;51.058;17.220;2022-11-27T07:53:01;45;38;21
54021;PMS7003;39936;51.058;17.220;2022-11-27T07:56:41;40;33;19
54021;PMS7003;39936;51.058;17.220;2022-11-27T08:00:14;53;39;24
54021;PMS7003;39936;51.058;17.220;2022-11-27T08:03:56;48;35;23
54021;PMS7003;39936;51.058;17.220;2022-11-27T08:07:30;48;38;23
54021;PMS7003;39936;51.058;17.220;2022-11-27T08:11:22;56;42;26
54021;PMS7003;39936;51.058;17.220;2022-11-27T08:14:40;55;39;23
54021;PMS7003;39936;51.058;17.220;2022-11-27T08:18:12;53;40;25
54021;PMS7003;39936;51.058;17.220;2022-11-27T08:21:58;44;34;22
54021;PMS7003;39936;51.058;17.220;2022-11-27T08:25:14;51;38;23
54021;PMS7003;39936;51.058;17.220;2022-11-27T08:28:36;47;33;20
54021;PMS7003;39936;51.058;17.220;2022-11-27T08:31:47;49;38;24
54021;PMS7003;39936;51.058;17.220;2022-11-27T08:35:05;43;34;20
54021;PMS7003;39936;51.058;17.220;2022-11-27T08:38:20;55;42;25
54021;PMS7003;39936;51.058;17.220;2022-11-27T08:41:56;53;39;24
54021;PMS7003;39936;51.058;17.220;2022-11-27T08:45:29;51;38;21
54021;PMS7003;39936;51.058;17.220;2022-11-27T08:48:47;54;40;25
54021;PMS7003;39936;51.058;17.220;2022-11-27T08:52:03;52;38;24
54021;PMS7003;39936;51.058;17.220;2022-11-27T08:55:17;52;42;26
54021;PMS7003;39936;51.058;17.220;2022-11-27T08:58:34;55;41;24
54021;PMS7003;39936;51.058;17.220;2022-11-27T09:02:47;57;45;27
54021;PMS7003;39936;51.058;17.220;2022-11-27T09:06:39;44;35;19
54021;PMS7003;39936;51.058;17.220;2022-11-27T09:10:05;42;34;21
54021;PMS7003;39936;51.058;17.220;2022-11-27T09:14:07;61;45;27
54021;PMS7003;39936;51.058;17.220;2022-11-27T09:17:23;49;38;22
54021;PMS7003;39936;51.058;17.220;2022-11-27T09:20:33;40;34;20
54021;PMS7003;39936;51.058;17.220;2022-11-27T09:23:50;59;47;29
54021;PMS7003;39936;51.058;17.220;2022-11-27T09:27:32;55;40;25
54021;PMS7003;39936;51.058;17.220;2022-11-27T09:30:46;44;34;20
54021;PMS7003;39936;51.058;17.220;2022-11-27T09:34:20;40;28;17
54021;PMS7003;39936;51.058;17.220;2022-11-27T09:37:32;39;31;20
54021;PMS7003;39936;51.058;17.220;2022-11-27T09:40:52;55;41;27
54021;PMS7003;39936;51.058;17.220;2022-11-27T09:44:41;52;35;22
54021;PMS7003;39936;51.058;17.220;2022-11-27T09:48:33;47;36;22
54021;PMS7003;39936;51.058;17.220;2022-11-27T09:55:32;47;35;21
54021;PMS7003;39936;51.058;17.220;2022-11-27T09:59:47;56;42;26
54021;PMS7003;39936;51.058;17.220;2022-11-27T10:02:49;40;32;20
54021;PMS7003;39936;51.058;17.220;2022-11-27T10:06:18;51;38;25
54021;PMS7003;39936;51.058;17.220;2022-11-27T10:17:21;46;39;25
54021;PMS7003;39936;51.058;17.220;2022-11-27T10:20:54;48;36;24
54021;PMS7003;39936;51.058;17.220;2022-11-27T10:24:44;64;47;30
54021;PMS7003;39936;51.058;17.220;2022-11-27T10:27:59;39;31;17
54021;PMS7003;39936;51.058;17.220;2022-11-27T10:31:47;56;42;26
54021;PMS7003;39936;51.058;17.220;2022-11-27T10:35:36;53;39;23
54021;PMS7003;39936;51.058;17.220;2022-11-27T10:39:47;52;38;23
54021;PMS7003;39936;51.058;17.220;2022-11-27T10:43:19;50;38;23
54021;PMS7003;39936;51.058;17.220;2022-11-27T10:46:42;51;39;23
54021;PMS7003;39936;51.058;17.220;2022-11-27T10:50:12;54;39;24
54021;PMS7003;39936;51.058;17.220;2022-11-27T10:53:52;41;35;20
54021;PMS7003;39936;51.058;17.220;2022-11-27T11:00:45;51;40;24
54021;PMS7003;39936;51.058;17.220;2022-11-27T11:04:29;49;37;23
54021;PMS7003;39936;51.058;17.220;2022-11-27T11:19:34;53;40;25
54021;PMS7003;39936;51.058;17.220;2022-11-27T11:22:48;45;39;25
54021;PMS7003;39936;51.058;17.220;2022-11-27T11:29:41;53;40;23
54021;PMS7003;39936;51.058;17.220;2022-11-27T11:33:09;52;40;24
54021;PMS7003;39936;51.058;17.220;2022-11-27T11:37:01;50;38;23
54021;PMS7003;39936;51.058;17.220;2022-11-27T11:41:05;44;35;22
54021;PMS7003;39936;51.058;17.220;2022-11-27T11:44:37;46;38;24
54021;PMS7003;39936;51.058;17.220;2022-11-27T11:47:54;53;38;24
54021;PMS7003;39936;51.058;17.220;2022-11-27T12:09:32;50;36;22
54021;PMS7003;39936;51.058;17.220;2022-11-27T12:31:36;42;33;21
54021;PMS7003;39936;51.058;17.220;2022-11-27T12:42:23;61;47;28
54021;PMS7003;39936;51.058;17.220;2022-11-27T12:45:57;61;46;28
54021;PMS7003;39936;51.058;17.220;2022-11-27T12:49:23;47;36;21
54021;PMS7003;39936;51.058;17.220;2022-11-27T12:57:44;54;42;26
54021;PMS7003;39936;51.058;17.220;2022-11-27T13:01:08;37;30;19
54021;PMS7003;39936;51.058;17.220;2022-11-27T13:04:51;39;32;20
54021;PMS7003;39936;51.058;17.220;2022-11-27T13:08:20;40;33;21
54021;PMS7003;39936;51.058;17.220;2022-11-27T13:11:44;41;34;20
54021;PMS7003;39936;51.058;17.220;2022-11-27T13:15:33;41;30;18
54021;PMS7003;39936;51.058;17.220;2022-11-27T13:22:54;37;30;18
54021;PMS7003;39936;51.058;17.220;2022-11-27T13:26:32;40;31;18
54021;PMS7003;39936;51.058;17.220;2022-11-27T13:30:03;38;34;20
54021;PMS7003;39936;51.058;17.220;2022-11-27T13:33:47;41;34;20
54021;PMS7003;39936;51.058;17.220;2022-11-27T13:37:06;58;45;28
54021;PMS7003;39936;51.058;17.220;2022-11-27T13:40:53;61;45;26
54021;PMS7003;39936;51.058;17.220;2022-11-27T13:47:39;53;37;24
54021;PMS7003;39936;51.058;17.220;2022-11-27T13:50:57;49;39;23
54021;PMS7003;39936;51.058;17.220;2022-11-27T13:54:18;52;40;25
54021;PMS7003;39936;51.058;17.220;2022-11-27T13:58:03;48;36;23
54021;PMS7003;39936;51.058;17.220;2022-11-27T14:01:12;47;37;25
54021;PMS7003;39936;51.058;17.220;2022-11-27T14:05:02;52;39;24
54021;PMS7003;39936;51.058;17.220;2022-11-27T14:11:44;55;42;27
54021;PMS7003;39936;51.058;17.220;2022-11-27T14:19:43;63;47;30
54021;PMS7003;39936;51.058;17.220;2022-11-27T14:23:11;54;41;25
54021;PMS7003;39936;51.058;17.220;2022-11-27T14:26:48;63;48;29
54021;PMS7003;39936;51.058;17.220;2022-11-27T14:33:28;55;42;26
54021;PMS7003;39936;51.058;17.220;2022-11-27T14:36:44;54;41;25
54021;PMS7003;39936;51.058;17.220;2022-11-27T14:39:54;42;36;23
54021;PMS7003;39936;51.058;17.220;2022-11-27T14:47:14;41;32;21
54021;PMS7003;39936;51.058;17.220;2022-11-27T14:51:06;53;40;26
54021;PMS7003;39936;51.058;17.220;2022-11-27T14:54:58;53;41;25
54021;PMS7003;39936;51.058;17.220;2022-11-27T14:58:16;63;46;28
54021;PMS7003;39936;51.058;17.220;2022-11-27T15:01:59;57;42;25
54021;PMS7003;39936;51.058;17.220;2022-11-27T15:05:21;55;41;25
54021;PMS7003;39936;51.058;17.220;2022-11-27T15:08:34;54;42;26
54021;PMS7003;39936;51.058;17.220;2022-11-27T15:15:03;57;43;26
54021;PMS7003;39936;51.058;17.220;2022-11-27T15:18:57;52;40;23
54021;PMS7003;39936;51.058;17.220;2022-11-27T15:22:26;49;39;24
54021;PMS7003;39936;51.058;17.220;2022-11-27T15:25:39;61;43;28
54021;PMS7003;39936;51.058;17.220;2022-11-27T15:33:04;61;46;29
54021;PMS7003;39936;51.058;17.220;2022-11-27T15:40:42;70;52;32
54021;PMS7003;39936;51.058;17.220;2022-11-27T15:43:56;55;44;26
54021;PMS7003;39936;51.058;17.220;2022-11-27T15:47:38;56;42;26
54021;PMS7003;39936;51.058;17.220;2022-11-27T15:50:52;55;42;26
54021;PMS7003;39936;51.058;17.220;2022-11-27T15:54:32;59;44;25
54021;PMS7003;39936;51.058;17.220;2022-11-27T15:58:10;61;43;27
54021;PMS7003;39936;51.058;17.220;2022-11-27T16:02:15;60;44;27
54021;PMS7003;39936;51.058;17.220;2022-11-27T16:05:26;58;45;27
54021;PMS7003;39936;51.058;17.220;2022-11-27T16:09:33;57;42;27
54021;PMS7003;39936;51.058;17.220;2022-11-27T16:13:09;49;38;24
54021;PMS7003;39936;51.058;17.220;2022-11-27T16:16:34;57;45;28
54021;PMS7003;39936;51.058;17.220;2022-11-27T16:20:20;68;52;29
54021;PMS7003;39936;51.058;17.220;2022-11-27T16:23:31;66;50;32
54021;PMS7003;39936;51.058;17.220;2022-11-27T16:26:59;70;53;33
54021;PMS7003;39936;51.058;17.220;2022-11-27T16:30:17;78;58;35
54021;PMS7003;39936;51.058;17.220;2022-11-27T16:33:31;73;56;34
54021;PMS7003;39936;51.058;17.220;2022-11-27T16:37:00;61;48;32
54021;PMS7003;39936;51.058;17.220;2022-11-27T16:40:12;57;42;27
54021;PMS7003;39936;51.058;17.220;2022-11-27T16:44:07;62;46;28
54021;PMS7003;39936;51.058;17.220;2022-11-27T16:48:12;62;45;27
54021;PMS7003;39936;51.058;17.220;2022-11-27T16:51:50;62;47;28
54021;PMS7003;39936;51.058;17.220;2022-11-27T16:55:08;68;50;31
54021;PMS7003;39936;51.058;17.220;2022-11-27T16:58:36;55;42;26
54021;PMS7003;39936;51.058;17.220;2022-11-27T17:02:11;62;45;27
54021;PMS7003;39936;51.058;17.220;2022-11-27T17:05:54;55;42;25
54021;PMS7003;39936;51.058;17.220;2022-11-27T17:09:14;52;38;24
54021;PMS7003;39936;51.058;17.220;2022-11-27T17:13:00;54;40;24
54021;PMS7003;39936;51.058;17.220;2022-11-27T17:16:59;54;40;24
54021;PMS7003;39936;51.058;17.220;2022-11-27T17:20:46;50;38;24
54021;PMS7003;39936;51.058;17.220;2022-11-27T17:23:57;48;39;24
54021;PMS7003;39936;51.058;17.220;2022-11-27T17:27:27;51;39;25
54021;PMS7003;39936;51.058;17.220;2022-11-27T17:30:53;50;39;24
54021;PMS7003;39936;51.058;17.220;2022-11-27T17:34:09;49;38;26
54021;PMS7003;39936;51.058;17.220;2022-11-27T17:37:28;51;39;24
54021;PMS7003;39936;51.058;17.220;2022-11-27T17:41:12;62;45;27
54021;PMS7003;39936;51.058;17.220;2022-11-27T17:45:00;59;44;27
54021;PMS7003;39936;51.058;17.220;2022-11-27T17:48:16;57;44;28
54021;PMS7003;39936;51.058;17.220;2022-11-27T17:52:03;61;45;28
54021;PMS7003;39936;51.058;17.220;2022-11-27T17:55:34;59;44;28
54021;PMS7003;39936;51.058;17.220;2022-11-27T17:59:27;62;47;29
54021;PMS7003;39936;51.058;17.220;2022-11-27T18:02:43;68;49;28
54021;PMS7003;39936;51.058;17.220;2022-11-27T18:06:18;60;47;28
54021;PMS7003;39936;51.058;17.220;2022-11-27T18:09:35;59;46;28
54021;PMS7003;39936;51.058;17.220;2022-11-27T18:12:50;60;45;28
54021;PMS7003;39936;51.058;17.220;2022-11-27T18:16:49;80;56;35
54021;PMS7003;39936;51.058;17.220;2022-11-27T18:19:58;95;70;42
54021;PMS7003;39936;51.058;17.220;2022-11-27T18:23:43;87;64;41
54021;PMS7003;39936;51.058;17.220;2022-11-27T18:27:31;73;54;34
54021;PMS7003;39936;51.058;17.220;2022-11-27T18:31:24;85;61;38
54021;PMS7003;39936;51.058;17.220;2022-11-27T18:35:15;89;66;40
54021;PMS7003;39936;51.058;17.220;2022-11-27T18:38:28;123;96;58
54021;PMS7003;39936;51.058;17.220;2022-11-27T18:41:57;87;66;42
54021;PMS7003;39936;51.058;17.220;2022-11-27T18:45:11;86;64;38
54021;PMS7003;39936;51.058;17.220;2022-11-27T18:48:38;72;57;35
54021;PMS7003;39936;51.058;17.220;2022-11-27T18:51:58;79;59;36
54021;PMS7003;39936;51.058;17.220;2022-11-27T18:55:25;73;53;34
54021;PMS7003;39936;51.058;17.220;2022-11-27T18:59:42;75;56;33
54021;PMS7003;39936;51.058;17.220;2022-11-27T19:03:13;73;52;34
54021;PMS7003;39936;51.058;17.220;2022-11-27T19:06:50;92;67;42
54021;PMS7003;39936;51.058;17.220;2022-11-27T19:10:10;89;64;40
54021;PMS7003;39936;51.058;17.220;2022-11-27T19:13:36;77;58;37
54021;PMS7003;39936;51.058;17.220;2022-11-27T19:16:49;71;52;33
54021;PMS7003;39936;51.058;17.220;2022-11-27T19:20:01;79;57;35
54021;PMS7003;39936;51.058;17.220;2022-11-27T19:23:46;82;62;38
54021;PMS7003;39936;51.058;17.220;2022-11-27T19:26:58;79;60;35
54021;PMS7003;39936;51.058;17.220;2022-11-27T19:30:12;82;59;36
54021;PMS7003;39936;51.058;17.220;2022-11-27T19:33:29;78;57;35
54021;PMS7003;39936;51.058;17.220;2022-11-27T19:36:49;84;62;37
54021;PMS7003;39936;51.058;17.220;2022-11-27T19:40:11;76;57;34
54021;PMS7003;39936;51.058;17.220;2022-11-27T19:43:36;72;52;34
54021;PMS7003;39936;51.058;17.220;2022-11-27T19:46:52;73;54;32
54021;PMS7003;39936;51.058;17.220;2022-11-27T19:50:04;86;60;36
54021;PMS7003;39936;51.058;17.220;2022-11-27T19:53:37;79;58;35
54021;PMS7003;39936;51.058;17.220;2022-11-27T19:57:27;77;57;34
54021;PMS7003;39936;51.058;17.220;2022-11-27T20:01:05;67;51;31
54021;PMS7003;39936;51.058;17.220;2022-11-27T20:05:03;81;58;35
54021;PMS7003;39936;51.058;17.220;2022-11-27T20:08:21;79;61;37
54021;PMS7003;39936;51.058;17.220;2022-11-27T20:11:43;74;55;34
54021;PMS7003;39936;51.058;17.220;2022-11-27T20:15:06;82;59;37
54021;PMS7003;39936;51.058;17.220;2022-11-27T20:18:30;80;58;36
54021;PMS7003;39936;51.058;17.220;2022-11-27T20:21:43;82;61;38
54021;PMS7003;39936;51.058;17.220;2022-11-27T20:25:37;74;56;35
54021;PMS7003;39936;51.058;17.220;2022-11-27T20:28:55;78;58;35
54021;PMS7003;39936;51.058;17.220;2022-11-27T20:32:54;77;58;35
54021;PMS7003;39936;51.058;17.220;2022-11-27T20:36:58;73;57;34
54021;PMS7003;39936;51.058;17.220;2022-11-27T20:40:25;79;59;35
54021;PMS7003;39936;51.058;17.220;2022-11-27T20:44:16;77;56;34
54021;PMS7003;39936;51.058;17.220;2022-11-27T20:48:06;76;57;36
54021;PMS7003;39936;51.058;17.220;2022-11-27T20:51:22;79;59;35
54021;PMS7003;39936;51.058;17.220;2022-11-27T20:55:26;74;55;36
54021;PMS7003;39936;51.058;17.220;2022-11-27T20:58:41;76;56;36
54021;PMS7003;39936;51.058;17.220;2022-11-27T21:02:03;79;59;38
54021;PMS7003;39936;51.058;17.220;2022-11-27T21:06:05;83;62;37
54021;PMS7003;39936;51.058;17.220;2022-11-27T21:09:20;74;55;35
54021;PMS7003;39936;51.058;17.220;2022-11-27T21:12:31;76;57;34
54021;PMS7003;39936;51.058;17.220;2022-11-27T21:15:50;102;75;44
54021;PMS7003;39936;51.058;17.220;2022-11-27T21:19:58;102;74;43
54021;PMS7003;39936;51.058;17.220;2022-11-27T21:23:25;77;60;37
54021;PMS7003;39936;51.058;17.220;2022-11-27T21:26:44;79;60;37
54021;PMS7003;39936;51.058;17.220;2022-11-27T21:30:03;83;62;36
54021;PMS7003;39936;51.058;17.220;2022-11-27T21:33:19;74;53;31
54021;PMS7003;39936;51.058;17.220;2022-11-27T21:38:03;79;60;36
54021;PMS7003;39936;51.058;17.220;2022-11-27T21:41:15;74;57;34
54021;PMS7003;39936;51.058;17.220;2022-11-27T21:44:31;79;59;36
54021;PMS7003;39936;51.058;17.220;2022-11-27T21:47:49;81;60;36
54021;PMS7003;39936;51.058;17.220;2022-11-27T21:51:04;81;62;39
54021;PMS7003;39936;51.058;17.220;2022-11-27T21:54:27;89;64;38
54021;PMS7003;39936;51.058;17.220;2022-11-27T21:57:47;96;69;42
54021;PMS7003;39936;51.058;17.220;2022-11-27T22:01:08;81;61;38
54021;PMS7003;39936;51.058;17.220;2022-11-27T22:04:24;77;59;35
54021;PMS7003;39936;51.058;17.220;2022-11-27T22:08:08;81;62;37
54021;PMS7003;39936;51.058;17.220;2022-11-27T22:11:50;87;63;38
54021;PMS7003;39936;51.058;17.220;2022-11-27T22:15:02;78;58;36
54021;PMS7003;39936;51.058;17.220;2022-11-27T22:22:18;75;55;34
54021;PMS7003;39936;51.058;17.220;2022-11-27T22:26:12;75;55;34
54021;PMS7003;39936;51.058;17.220;2022-11-27T22:30:05;73;54;33
54021;PMS7003;39936;51.058;17.220;2022-11-27T22:33:29;74;57;35
54021;PMS7003;39936;51.058;17.220;2022-11-27T22:37:48;75;56;34
54021;PMS7003;39936;51.058;17.220;2022-11-27T22:41:36;71;54;33
54021;PMS7003;39936;51.058;17.220;2022-11-27T22:44:58;73;52;33
54021;PMS7003;39936;51.058;17.220;2022-11-27T22:48:38;74;55;34
54021;PMS7003;39936;51.058;17.220;2022-11-27T22:52:28;82;58;35
54021;PMS7003;39936;51.058;17.220;2022-11-27T22:55:44;76;54;32
54021;PMS7003;39936;51.058;17.220;2022-11-27T22:59:44;70;54;34
54021;PMS7003;39936;51.058;17.220;2022-11-27T23:03:19;71;55;34
54021;PMS7003;39936;51.058;17.220;2022-11-27T23:06:33;76;56;33
54021;PMS7003;39936;51.058;17.220;2022-11-27T23:10:08;72;56;34
54021;PMS7003;39936;51.058;17.220;2022-11-27T23:13:42;75;55;33
54021;PMS7003;39936;51.058;17.220;2022-11-27T23:17:12;72;54;36
54021;PMS7003;39936;51.058;17.220;2022-11-27T23:20:27;72;55;35
54021;PMS7003;39936;51.058;17.220;2022-11-27T23:24:02;72;56;35
54021;PMS7003;39936;51.058;17.220;2022-11-27T23:27:17;72;55;36
54021;PMS7003;39936;51.058;17.220;2022-11-27T23:30:53;77;56;35
54021;PMS7003;39936;51.058;17.220;2022-11-27T23:34:19;81;58;37
54021;PMS7003;39936;51.058;17.220;2022-11-27T23:38:04;76;57;34
54021;PMS7003;39936;51.058;17.220;2022-11-27T23:41:42;85;62;38
54021;PMS7003;39936;51.058;17.220;2022-11-27T23:45:31;82;60;38
54021;PMS7003;39936;51.058;17.220;2022-11-27T23:49:19;89;67;40
54021;PMS7003;39936;51.058;17.220;2022-11-27T23:52:38;94;68;41
54021;PMS7003;39936;51.058;17.220;2022-11-27T23:56:07;88;63;39
54021;PMS7003;39936;51.058;17.220;2022-11-27T23:59:33;93;67;40
